sensor_id;sensor_type;location;lat;lon;timestamp;pressure;altitude;pressure_sealevel;temperature;humidity
59104;BME280;51449;51.676;5.812;2023-04-06T05:11:08;101595.06;;;4.02;60.60
59104;BME280;51449;51.676;5.812;2023-04-06T06:21:52;101556.84;;;5.93;61.26
59104;BME280;51449;51.676;5.812;2023-04-06T06:24:15;101558.13;;;6.06;61.01
59104;BME280;51449;51.676;5.812;2023-04-06T06:26:37;101558.59;;;6.18;60.97
59104;BME280;51449;51.676;5.812;2023-04-06T06:29:01;101557.97;;;6.27;60.62
59104;BME280;51449;51.676;5.812;2023-04-06T06:31:23;101560.91;;;6.35;59.95
59104;BME280;51449;51.676;5.812;2023-04-06T06:33:46;101554.31;;;6.41;60.52
59104;BME280;51449;51.676;5.812;2023-04-06T06:36:12;101560.00;;;6.45;59.99
59104;BME280;51449;51.676;5.812;2023-04-06T06:38:34;101550.34;;;6.53;59.62
59104;BME280;51449;51.676;5.812;2023-04-06T06:40:56;101554.69;;;6.59;59.87
59104;BME280;51449;51.676;5.812;2023-04-06T06:43:20;101557.06;;;6.65;59.56
59104;BME280;51449;51.676;5.812;2023-04-06T06:45:51;101557.84;;;6.71;59.68
59104;BME280;51449;51.676;5.812;2023-04-06T06:48:13;101553.41;;;6.75;59.88
59104;BME280;51449;51.676;5.812;2023-04-06T06:50:35;101555.28;;;6.80;59.69
59104;BME280;51449;51.676;5.812;2023-04-06T06:52:57;101561.00;;;6.83;59.44
59104;BME280;51449;51.676;5.812;2023-04-06T06:55:18;101550.81;;;6.89;59.22
59104;BME280;51449;51.676;5.812;2023-04-06T06:57:41;101555.13;;;6.95;59.12
59104;BME280;51449;51.676;5.812;2023-04-06T07:00:05;101551.50;;;7.00;59.22
59104;BME280;51449;51.676;5.812;2023-04-06T07:02:28;101554.69;;;7.07;59.13
59104;BME280;51449;51.676;5.812;2023-04-06T07:04:50;101559.03;;;7.13;58.96
59104;BME280;51449;51.676;5.812;2023-04-06T07:07:12;101555.94;;;7.20;58.96
59104;BME280;51449;51.676;5.812;2023-04-06T07:09:35;101553.13;;;7.25;58.81
59104;BME280;51449;51.676;5.812;2023-04-06T07:11:56;101546.16;;;7.33;58.94
59104;BME280;51449;51.676;5.812;2023-04-06T07:14:18;101557.88;;;7.38;58.95
59104;BME280;51449;51.676;5.812;2023-04-06T07:16:40;101557.81;;;7.43;58.45
59104;BME280;51449;51.676;5.812;2023-04-06T07:19:03;101553.09;;;7.49;58.54
59104;BME280;51449;51.676;5.812;2023-04-06T07:21:25;101543.06;;;7.58;58.43
59104;BME280;51449;51.676;5.812;2023-04-06T07:23:48;101548.72;;;7.67;58.30
59104;BME280;51449;51.676;5.812;2023-04-06T07:26:10;101547.75;;;7.77;58.14
59104;BME280;51449;51.676;5.812;2023-04-06T07:28:32;101555.31;;;7.85;57.93
59104;BME280;51449;51.676;5.812;2023-04-06T07:30:55;101550.78;;;7.94;58.15
59104;BME280;51449;51.676;5.812;2023-04-06T07:33:17;101550.41;;;8.01;57.66
59104;BME280;51449;51.676;5.812;2023-04-06T07:35:40;101543.44;;;8.08;57.25
59104;BME280;51449;51.676;5.812;2023-04-06T07:38:02;101545.00;;;8.14;57.05
59104;BME280;51449;51.676;5.812;2023-04-06T07:40:25;101544.91;;;8.20;56.85
59104;BME280;51449;51.676;5.812;2023-04-06T07:42:50;101532.19;;;8.24;56.63
59104;BME280;51449;51.676;5.812;2023-04-06T07:45:12;101536.50;;;8.30;56.09
59104;BME280;51449;51.676;5.812;2023-04-06T07:47:34;101532.03;;;8.34;56.68
59104;BME280;51449;51.676;5.812;2023-04-06T07:49:57;101530.28;;;8.38;56.05
59104;BME280;51449;51.676;5.812;2023-04-06T07:52:19;101527.56;;;8.38;56.03
59104;BME280;51449;51.676;5.812;2023-04-06T07:54:40;101531.88;;;8.44;55.98
59104;BME280;51449;51.676;5.812;2023-04-06T07:57:03;101536.56;;;8.44;55.90
59104;BME280;51449;51.676;5.812;2023-04-06T07:59:25;101532.88;;;8.48;56.08
59104;BME280;51449;51.676;5.812;2023-04-06T08:01:46;101539.13;;;8.54;56.21
59104;BME280;51449;51.676;5.812;2023-04-06T08:04:08;101530.28;;;8.57;56.01
59104;BME280;51449;51.676;5.812;2023-04-06T08:06:31;101536.47;;;8.63;56.01
59104;BME280;51449;51.676;5.812;2023-04-06T08:08:53;101527.56;;;8.71;55.99
59104;BME280;51449;51.676;5.812;2023-04-06T08:11:15;101524.38;;;8.77;56.17
59104;BME280;51449;51.676;5.812;2023-04-06T08:13:37;101523.97;;;8.84;55.37
59104;BME280;51449;51.676;5.812;2023-04-06T08:15:59;101524.41;;;8.91;55.57
59104;BME280;51449;51.676;5.812;2023-04-06T08:18:22;101528.59;;;9.03;55.52
59104;BME280;51449;51.676;5.812;2023-04-06T08:20:43;101528.56;;;9.16;55.55
59104;BME280;51449;51.676;5.812;2023-04-06T08:23:05;101528.66;;;9.25;54.80
59104;BME280;51449;51.676;5.812;2023-04-06T08:25:28;101538.41;;;9.31;54.87
59104;BME280;51449;51.676;5.812;2023-04-06T08:27:49;101528.03;;;9.42;54.89
59104;BME280;51449;51.676;5.812;2023-04-06T08:30:11;101534.09;;;9.53;54.79
59104;BME280;51449;51.676;5.812;2023-04-06T08:32:33;101531.75;;;9.60;53.80
59104;BME280;51449;51.676;5.812;2023-04-06T08:34:55;101519.00;;;9.64;53.82
59104;BME280;51449;51.676;5.812;2023-04-06T08:37:17;101527.94;;;9.70;53.84
59104;BME280;51449;51.676;5.812;2023-04-06T08:39:38;101534.63;;;9.77;53.28
59104;BME280;51449;51.676;5.812;2023-04-06T08:42:01;101533.91;;;9.85;53.46
59104;BME280;51449;51.676;5.812;2023-04-06T08:44:24;101520.84;;;9.91;53.45
59104;BME280;51449;51.676;5.812;2023-04-06T08:46:46;101521.91;;;10.04;53.54
59104;BME280;51449;51.676;5.812;2023-04-06T08:49:09;101523.91;;;10.12;53.39
59104;BME280;51449;51.676;5.812;2023-04-06T08:51:31;101520.69;;;10.19;53.42
59104;BME280;51449;51.676;5.812;2023-04-06T08:53:54;101523.53;;;10.27;53.33
59104;BME280;51449;51.676;5.812;2023-04-06T08:56:17;101526.97;;;10.33;52.98
59104;BME280;51449;51.676;5.812;2023-04-06T08:58:40;101524.72;;;10.35;52.27
59104;BME280;51449;51.676;5.812;2023-04-06T09:01:08;101521.84;;;10.40;51.75
59104;BME280;51449;51.676;5.812;2023-04-06T09:03:35;101522.50;;;10.46;51.64
59104;BME280;51449;51.676;5.812;2023-04-06T09:06:00;101522.84;;;10.44;50.87
59104;BME280;51449;51.676;5.812;2023-04-06T09:08:22;101535.03;;;10.52;51.11
59104;BME280;51449;51.676;5.812;2023-04-06T09:10:44;101527.78;;;10.56;51.09
59104;BME280;51449;51.676;5.812;2023-04-06T09:13:07;101527.00;;;10.64;51.65
59104;BME280;51449;51.676;5.812;2023-04-06T09:15:30;101527.06;;;10.73;51.36
59104;BME280;51449;51.676;5.812;2023-04-06T09:17:51;101526.75;;;10.83;51.25
59104;BME280;51449;51.676;5.812;2023-04-06T09:20:22;101530.69;;;10.91;50.89
59104;BME280;51449;51.676;5.812;2023-04-06T09:22:47;101530.53;;;10.96;50.74
59104;BME280;51449;51.676;5.812;2023-04-06T09:25:18;101525.38;;;11.03;50.81
59104;BME280;51449;51.676;5.812;2023-04-06T09:27:42;101535.75;;;11.06;50.19
59104;BME280;51449;51.676;5.812;2023-04-06T09:30:08;101529.94;;;11.08;50.14
59104;BME280;51449;51.676;5.812;2023-04-06T09:32:49;101533.50;;;11.08;49.78
59104;BME280;51449;51.676;5.812;2023-04-06T09:35:12;101537.69;;;11.06;49.59
59104;BME280;51449;51.676;5.812;2023-04-06T09:37:34;101532.66;;;10.99;48.92
59104;BME280;51449;51.676;5.812;2023-04-06T09:40:03;101533.34;;;11.05;49.76
59104;BME280;51449;51.676;5.812;2023-04-06T09:42:26;101534.44;;;11.04;49.65
59104;BME280;51449;51.676;5.812;2023-04-06T09:44:48;101535.09;;;11.01;49.27
59104;BME280;51449;51.676;5.812;2023-04-06T09:47:09;101536.56;;;11.07;49.71
59104;BME280;51449;51.676;5.812;2023-04-06T09:49:33;101528.16;;;11.12;49.95
59104;BME280;51449;51.676;5.812;2023-04-06T09:52:14;101528.31;;;11.16;49.21
59104;BME280;51449;51.676;5.812;2023-04-06T09:54:38;101524.56;;;11.11;49.24
59104;BME280;51449;51.676;5.812;2023-04-06T09:57:11;101531.38;;;11.14;49.33
59104;BME280;51449;51.676;5.812;2023-04-06T09:59:58;101530.13;;;11.20;49.64
59104;BME280;51449;51.676;5.812;2023-04-06T10:02:40;101535.19;;;11.27;49.64
59104;BME280;51449;51.676;5.812;2023-04-06T10:05:09;101532.09;;;11.28;49.87
59104;BME280;51449;51.676;5.812;2023-04-06T10:07:40;101528.03;;;11.26;49.58
59104;BME280;51449;51.676;5.812;2023-04-06T10:10:20;101532.09;;;11.28;49.78
59104;BME280;51449;51.676;5.812;2023-04-06T10:12:43;101528.69;;;11.31;50.08
59104;BME280;51449;51.676;5.812;2023-04-06T10:15:06;101527.91;;;11.40;50.25
59104;BME280;51449;51.676;5.812;2023-04-06T10:17:29;101530.66;;;11.48;50.33
59104;BME280;51449;51.676;5.812;2023-04-06T10:20:14;101530.69;;;11.66;50.37
59104;BME280;51449;51.676;5.812;2023-04-06T10:22:53;101530.50;;;11.79;49.90
59104;BME280;51449;51.676;5.812;2023-04-06T10:25:32;101521.75;;;11.86;49.42
59104;BME280;51449;51.676;5.812;2023-04-06T10:28:21;101527.16;;;12.00;50.00
59104;BME280;51449;51.676;5.812;2023-04-06T10:30:43;101530.53;;;12.06;49.86
59104;BME280;51449;51.676;5.812;2023-04-06T10:33:18;101527.63;;;12.19;49.48
59104;BME280;51449;51.676;5.812;2023-04-06T10:35:41;101528.06;;;12.21;49.72
59104;BME280;51449;51.676;5.812;2023-04-06T10:38:04;101528.56;;;12.24;49.50
59104;BME280;51449;51.676;5.812;2023-04-06T10:40:26;101529.72;;;12.23;48.72
59104;BME280;51449;51.676;5.812;2023-04-06T10:42:48;101526.94;;;12.23;48.93
59104;BME280;51449;51.676;5.812;2023-04-06T10:45:40;101527.25;;;12.21;48.93
59104;BME280;51449;51.676;5.812;2023-04-06T10:48:18;101525.66;;;12.20;49.43
59104;BME280;51449;51.676;5.812;2023-04-06T10:50:41;101521.25;;;12.19;50.42
59104;BME280;51449;51.676;5.812;2023-04-06T10:53:04;101520.63;;;12.22;50.96
59104;BME280;51449;51.676;5.812;2023-04-06T10:55:28;101529.53;;;12.28;51.19
59104;BME280;51449;51.676;5.812;2023-04-06T10:57:51;101519.78;;;12.30;51.73
59104;BME280;51449;51.676;5.812;2023-04-06T11:00:13;101525.47;;;12.34;51.44
59104;BME280;51449;51.676;5.812;2023-04-06T11:02:35;101524.00;;;12.36;52.82
59104;BME280;51449;51.676;5.812;2023-04-06T11:05:00;101522.06;;;12.37;53.24
59104;BME280;51449;51.676;5.812;2023-04-06T11:07:26;101524.81;;;12.28;54.02
59104;BME280;51449;51.676;5.812;2023-04-06T11:09:50;101526.63;;;12.24;54.46
59104;BME280;51449;51.676;5.812;2023-04-06T11:12:32;101522.25;;;12.14;54.93
59104;BME280;51449;51.676;5.812;2023-04-06T11:15:01;101525.50;;;12.08;54.94
59104;BME280;51449;51.676;5.812;2023-04-06T11:17:31;101527.28;;;12.04;55.84
59104;BME280;51449;51.676;5.812;2023-04-06T11:19:55;101526.47;;;11.94;55.86
59104;BME280;51449;51.676;5.812;2023-04-06T11:22:17;101522.41;;;11.83;56.36
59104;BME280;51449;51.676;5.812;2023-04-06T11:24:39;101527.59;;;11.76;56.07
59104;BME280;51449;51.676;5.812;2023-04-06T11:27:01;101530.03;;;11.69;56.79
59104;BME280;51449;51.676;5.812;2023-04-06T11:29:25;101524.19;;;11.62;57.26
59104;BME280;51449;51.676;5.812;2023-04-06T11:31:59;101526.44;;;11.60;57.73
59104;BME280;51449;51.676;5.812;2023-04-06T11:34:24;101523.84;;;11.54;58.14
59104;BME280;51449;51.676;5.812;2023-04-06T11:36:48;101517.19;;;11.47;57.95
59104;BME280;51449;51.676;5.812;2023-04-06T11:39:22;101519.94;;;11.38;58.27
59104;BME280;51449;51.676;5.812;2023-04-06T11:41:50;101520.25;;;11.28;58.63
59104;BME280;51449;51.676;5.812;2023-04-06T11:44:13;101524.59;;;11.20;58.76
59104;BME280;51449;51.676;5.812;2023-04-06T11:46:35;101504.66;;;11.14;59.42
59104;BME280;51449;51.676;5.812;2023-04-06T11:49:01;101517.75;;;11.09;59.28
59104;BME280;51449;51.676;5.812;2023-04-06T11:51:23;101511.72;;;10.98;60.24
59104;BME280;51449;51.676;5.812;2023-04-06T11:53:45;101515.28;;;10.90;59.53
59104;BME280;51449;51.676;5.812;2023-04-06T11:56:07;101507.78;;;10.82;60.02
59104;BME280;51449;51.676;5.812;2023-04-06T11:58:29;101506.63;;;10.74;60.71
59104;BME280;51449;51.676;5.812;2023-04-06T12:00:51;101503.69;;;10.70;60.66
59104;BME280;51449;51.676;5.812;2023-04-06T12:03:14;101517.47;;;10.70;61.35
59104;BME280;51449;51.676;5.812;2023-04-06T12:05:36;101512.56;;;10.67;62.15
59104;BME280;51449;51.676;5.812;2023-04-06T12:07:57;101501.19;;;10.60;62.70
59104;BME280;51449;51.676;5.812;2023-04-06T12:10:23;101503.13;;;10.51;62.93
59104;BME280;51449;51.676;5.812;2023-04-06T12:12:46;101513.63;;;10.49;63.13
59104;BME280;51449;51.676;5.812;2023-04-06T12:15:08;101508.13;;;10.49;63.45
59104;BME280;51449;51.676;5.812;2023-04-06T12:17:30;101500.47;;;10.46;64.58
59104;BME280;51449;51.676;5.812;2023-04-06T12:19:52;101502.25;;;10.42;64.16
59104;BME280;51449;51.676;5.812;2023-04-06T12:22:14;101500.75;;;10.36;64.93
59104;BME280;51449;51.676;5.812;2023-04-06T12:24:36;101502.03;;;10.30;65.83
59104;BME280;51449;51.676;5.812;2023-04-06T12:26:58;101507.31;;;10.26;65.37
59104;BME280;51449;51.676;5.812;2023-04-06T12:29:30;101497.22;;;10.21;66.17
59104;BME280;51449;51.676;5.812;2023-04-06T12:31:52;101502.56;;;10.18;65.82
59104;BME280;51449;51.676;5.812;2023-04-06T12:34:14;101499.00;;;10.17;67.15
59104;BME280;51449;51.676;5.812;2023-04-06T12:36:37;101498.00;;;10.13;67.35
59104;BME280;51449;51.676;5.812;2023-04-06T12:39:00;101494.44;;;10.13;67.34
59104;BME280;51449;51.676;5.812;2023-04-06T12:41:23;101492.50;;;10.13;67.34
59104;BME280;51449;51.676;5.812;2023-04-06T12:43:46;101492.34;;;10.18;68.42
59104;BME280;51449;51.676;5.812;2023-04-06T12:46:08;101490.75;;;10.17;68.48
59104;BME280;51449;51.676;5.812;2023-04-06T12:48:30;101485.59;;;10.24;67.78
59104;BME280;51449;51.676;5.812;2023-04-06T12:51:00;101480.09;;;10.24;68.46
59104;BME280;51449;51.676;5.812;2023-04-06T12:53:23;101479.09;;;10.20;68.21
59104;BME280;51449;51.676;5.812;2023-04-06T12:55:45;101480.03;;;10.16;67.86
59104;BME280;51449;51.676;5.812;2023-04-06T12:58:07;101476.34;;;10.20;67.79
59104;BME280;51449;51.676;5.812;2023-04-06T13:00:29;101472.13;;;10.23;67.75
59104;BME280;51449;51.676;5.812;2023-04-06T13:02:52;101471.50;;;10.26;68.04
59104;BME280;51449;51.676;5.812;2023-04-06T13:05:14;101475.00;;;10.32;67.80
59104;BME280;51449;51.676;5.812;2023-04-06T13:07:40;101475.28;;;10.30;67.86
59104;BME280;51449;51.676;5.812;2023-04-06T13:10:02;101475.00;;;10.32;68.10
59104;BME280;51449;51.676;5.812;2023-04-06T13:12:24;101462.03;;;10.32;67.60
59104;BME280;51449;51.676;5.812;2023-04-06T13:14:47;101464.88;;;10.27;68.10
59104;BME280;51449;51.676;5.812;2023-04-06T13:17:12;101460.72;;;10.30;68.31
59104;BME280;51449;51.676;5.812;2023-04-06T13:19:33;101456.63;;;10.27;68.84
59104;BME280;51449;51.676;5.812;2023-04-06T13:21:55;101466.22;;;10.30;68.39
59104;BME280;51449;51.676;5.812;2023-04-06T13:24:17;101452.94;;;10.32;68.75
59104;BME280;51449;51.676;5.812;2023-04-06T13:26:39;101457.63;;;10.31;68.80
59104;BME280;51449;51.676;5.812;2023-04-06T13:29:00;101452.44;;;10.30;69.24
59104;BME280;51449;51.676;5.812;2023-04-06T13:31:23;101453.25;;;10.30;69.05
59104;BME280;51449;51.676;5.812;2023-04-06T13:33:45;101454.88;;;10.31;69.73
59104;BME280;51449;51.676;5.812;2023-04-06T13:36:07;101444.69;;;10.32;69.74
59104;BME280;51449;51.676;5.812;2023-04-06T13:38:30;101441.59;;;10.33;69.55
59104;BME280;51449;51.676;5.812;2023-04-06T13:40:52;101449.88;;;10.33;70.01
59104;BME280;51449;51.676;5.812;2023-04-06T13:43:15;101436.44;;;10.32;70.23
59104;BME280;51449;51.676;5.812;2023-04-06T13:45:37;101439.34;;;10.35;70.64
59104;BME280;51449;51.676;5.812;2023-04-06T13:48:00;101439.03;;;10.37;71.19
59104;BME280;51449;51.676;5.812;2023-04-06T13:50:21;101437.25;;;10.41;71.12
59104;BME280;51449;51.676;5.812;2023-04-06T13:52:43;101428.84;;;10.46;70.85
59104;BME280;51449;51.676;5.812;2023-04-06T13:55:05;101429.03;;;10.49;70.56
59104;BME280;51449;51.676;5.812;2023-04-06T13:57:27;101427.59;;;10.52;71.15
59104;BME280;51449;51.676;5.812;2023-04-06T13:59:48;101420.47;;;10.51;70.63
59104;BME280;51449;51.676;5.812;2023-04-06T14:02:13;101421.91;;;10.48;70.08
59104;BME280;51449;51.676;5.812;2023-04-06T14:04:35;101421.88;;;10.40;70.75
59104;BME280;51449;51.676;5.812;2023-04-06T14:06:58;101412.59;;;10.36;71.06
59104;BME280;51449;51.676;5.812;2023-04-06T14:09:21;101417.31;;;10.35;70.75
59104;BME280;51449;51.676;5.812;2023-04-06T14:11:43;101420.38;;;10.34;71.28
59104;BME280;51449;51.676;5.812;2023-04-06T14:14:05;101409.81;;;10.27;71.62
59104;BME280;51449;51.676;5.812;2023-04-06T14:16:27;101416.25;;;10.22;71.50
59104;BME280;51449;51.676;5.812;2023-04-06T14:18:49;101406.19;;;10.18;72.11
59104;BME280;51449;51.676;5.812;2023-04-06T14:21:10;101412.00;;;10.16;71.83
59104;BME280;51449;51.676;5.812;2023-04-06T14:23:32;101406.00;;;10.14;72.41
59104;BME280;51449;51.676;5.812;2023-04-06T14:26:05;101407.28;;;10.08;72.25
59104;BME280;51449;51.676;5.812;2023-04-06T14:28:27;101406.28;;;10.04;72.29
59104;BME280;51449;51.676;5.812;2023-04-06T14:30:49;101400.59;;;10.00;72.63
59104;BME280;51449;51.676;5.812;2023-04-06T14:33:11;101404.00;;;9.97;73.03
59104;BME280;51449;51.676;5.812;2023-04-06T14:35:33;101403.16;;;9.97;72.96
59104;BME280;51449;51.676;5.812;2023-04-06T14:37:58;101395.22;;;9.95;73.39
59104;BME280;51449;51.676;5.812;2023-04-06T14:40:20;101393.28;;;9.96;73.29
59104;BME280;51449;51.676;5.812;2023-04-06T14:42:42;101395.22;;;9.95;73.52
59104;BME280;51449;51.676;5.812;2023-04-06T14:45:04;101388.88;;;9.95;74.20
59104;BME280;51449;51.676;5.812;2023-04-06T14:47:27;101394.41;;;9.95;74.09
59104;BME280;51449;51.676;5.812;2023-04-06T14:49:51;101397.16;;;9.95;74.48
59104;BME280;51449;51.676;5.812;2023-04-06T14:52:13;101391.03;;;9.98;74.55
59104;BME280;51449;51.676;5.812;2023-04-06T14:54:35;101392.16;;;9.97;74.54
59104;BME280;51449;51.676;5.812;2023-04-06T14:56:57;101391.03;;;9.98;74.53
59104;BME280;51449;51.676;5.812;2023-04-06T14:59:19;101387.47;;;9.97;75.17
59104;BME280;51449;51.676;5.812;2023-04-06T15:01:41;101387.78;;;9.96;75.41
59104;BME280;51449;51.676;5.812;2023-04-06T15:04:03;101378.72;;;9.95;74.99
59104;BME280;51449;51.676;5.812;2023-04-06T15:06:25;101384.03;;;9.92;75.58
59104;BME280;51449;51.676;5.812;2023-04-06T15:08:48;101385.34;;;9.94;75.53
59104;BME280;51449;51.676;5.812;2023-04-06T15:11:11;101385.34;;;9.94;75.69
59104;BME280;51449;51.676;5.812;2023-04-06T15:13:33;101375.75;;;9.92;76.03
59104;BME280;51449;51.676;5.812;2023-04-06T15:15:55;101379.66;;;9.91;75.88
59104;BME280;51449;51.676;5.812;2023-04-06T15:18:19;101376.41;;;9.89;76.00
59104;BME280;51449;51.676;5.812;2023-04-06T15:20:41;101384.47;;;9.85;75.83
59104;BME280;51449;51.676;5.812;2023-04-06T15:23:03;101363.88;;;9.82;75.76
59104;BME280;51449;51.676;5.812;2023-04-06T15:25:25;101369.41;;;9.82;76.11
59104;BME280;51449;51.676;5.812;2023-04-06T15:27:47;101366.97;;;9.81;75.97
59104;BME280;51449;51.676;5.812;2023-04-06T15:30:09;101370.22;;;9.83;76.29
59104;BME280;51449;51.676;5.812;2023-04-06T15:32:31;101366.63;;;9.82;76.62
59104;BME280;51449;51.676;5.812;2023-04-06T15:34:53;101362.59;;;9.80;77.12
59104;BME280;51449;51.676;5.812;2023-04-06T15:37:17;101367.91;;;9.76;77.25
59104;BME280;51449;51.676;5.812;2023-04-06T15:39:39;101355.78;;;9.77;76.98
59104;BME280;51449;51.676;5.812;2023-04-06T15:42:01;101356.91;;;9.76;77.30
59104;BME280;51449;51.676;5.812;2023-04-06T15:44:23;101361.28;;;9.77;77.66
59104;BME280;51449;51.676;5.812;2023-04-06T15:46:46;101344.47;;;9.79;77.55
59104;BME280;51449;51.676;5.812;2023-04-06T15:49:07;101357.06;;;9.80;77.59
59104;BME280;51449;51.676;5.812;2023-04-06T15:51:29;101347.22;;;9.79;77.63
59104;BME280;51449;51.676;5.812;2023-04-06T15:53:52;101347.50;;;9.77;78.11
59104;BME280;51449;51.676;5.812;2023-04-06T15:56:13;101338.75;;;9.75;78.18
59104;BME280;51449;51.676;5.812;2023-04-06T15:58:36;101347.34;;;9.74;78.09
59104;BME280;51449;51.676;5.812;2023-04-06T16:00:58;101343.28;;;9.71;77.76
59104;BME280;51449;51.676;5.812;2023-04-06T16:03:20;101351.03;;;9.69;78.14
59104;BME280;51449;51.676;5.812;2023-04-06T16:05:43;101353.28;;;9.67;77.96
59104;BME280;51449;51.676;5.812;2023-04-06T16:08:25;101347.28;;;9.65;78.15
59104;BME280;51449;51.676;5.812;2023-04-06T16:10:47;101351.19;;;9.64;78.45
59104;BME280;51449;51.676;5.812;2023-04-06T16:13:10;101346.47;;;9.64;78.61
59104;BME280;51449;51.676;5.812;2023-04-06T16:15:32;101347.63;;;9.63;78.74
59104;BME280;51449;51.676;5.812;2023-04-06T16:17:55;101350.16;;;9.60;79.04
59104;BME280;51449;51.676;5.812;2023-04-06T16:20:18;101347.91;;;9.62;78.81
59104;BME280;51449;51.676;5.812;2023-04-06T16:22:41;101345.47;;;9.60;78.89
59104;BME280;51449;51.676;5.812;2023-04-06T16:25:03;101337.06;;;9.57;78.91
59104;BME280;51449;51.676;5.812;2023-04-06T16:27:25;101345.59;;;9.55;79.36
59104;BME280;51449;51.676;5.812;2023-04-06T16:29:48;101339.28;;;9.55;79.09
59104;BME280;51449;51.676;5.812;2023-04-06T16:32:10;101341.03;;;9.51;79.16
59104;BME280;51449;51.676;5.812;2023-04-06T16:34:33;101333.94;;;9.50;79.46
59104;BME280;51449;51.676;5.812;2023-04-06T16:36:56;101331.81;;;9.47;79.72
59104;BME280;51449;51.676;5.812;2023-04-06T16:39:18;101335.16;;;9.43;79.93
59104;BME280;51449;51.676;5.812;2023-04-06T16:41:40;101335.16;;;9.43;80.16
59104;BME280;51449;51.676;5.812;2023-04-06T16:44:03;101333.84;;;9.41;80.06
59104;BME280;51449;51.676;5.812;2023-04-06T16:46:35;101328.34;;;9.41;80.51
59104;BME280;51449;51.676;5.812;2023-04-06T16:48:59;101332.25;;;9.40;80.13
59104;BME280;51449;51.676;5.812;2023-04-06T16:51:23;101325.44;;;9.37;80.81
59104;BME280;51449;51.676;5.812;2023-04-06T16:53:45;101325.44;;;9.37;80.76
59104;BME280;51449;51.676;5.812;2023-04-06T16:56:08;101324.28;;;9.38;80.48
59104;BME280;51449;51.676;5.812;2023-04-06T16:58:31;101317.19;;;9.37;80.82
59104;BME280;51449;51.676;5.812;2023-04-06T17:00:54;101316.97;;;9.34;81.33
59104;BME280;51449;51.676;5.812;2023-04-06T17:03:16;101315.69;;;9.31;81.61
59104;BME280;51449;51.676;5.812;2023-04-06T17:05:39;101316.19;;;9.33;81.39
59104;BME280;51449;51.676;5.812;2023-04-06T17:08:03;101304.38;;;9.33;81.45
59104;BME280;51449;51.676;5.812;2023-04-06T17:10:25;101302.44;;;9.33;81.13
59104;BME280;51449;51.676;5.812;2023-04-06T17:12:57;101302.44;;;9.33;81.42
59104;BME280;51449;51.676;5.812;2023-04-06T17:15:19;101300.81;;;9.32;81.81
59104;BME280;51449;51.676;5.812;2023-04-06T17:17:42;101295.63;;;9.31;81.67
59104;BME280;51449;51.676;5.812;2023-04-06T17:20:05;101299.19;;;9.31;81.74
59104;BME280;51449;51.676;5.812;2023-04-06T17:22:28;101297.06;;;9.28;81.94
59104;BME280;51449;51.676;5.812;2023-04-06T17:24:50;101290.75;;;9.28;82.02
59104;BME280;51449;51.676;5.812;2023-04-06T17:27:13;101292.19;;;9.25;82.35
59104;BME280;51449;51.676;5.812;2023-04-06T17:29:35;101296.88;;;9.25;81.97
59104;BME280;51449;51.676;5.812;2023-04-06T17:31:58;101293.31;;;9.24;82.30
59104;BME280;51449;51.676;5.812;2023-04-06T17:34:20;101296.88;;;9.25;81.84
59104;BME280;51449;51.676;5.812;2023-04-06T17:36:42;101290.88;;;9.23;82.15
59104;BME280;51449;51.676;5.812;2023-04-06T17:39:06;101289.56;;;9.20;82.41
59104;BME280;51449;51.676;5.812;2023-04-06T17:41:29;101296.69;;;9.21;82.45
59104;BME280;51449;51.676;5.812;2023-04-06T17:43:53;101288.44;;;9.21;82.81
59104;BME280;51449;51.676;5.812;2023-04-06T17:46:17;101290.69;;;9.19;82.90
59104;BME280;51449;51.676;5.812;2023-04-06T17:48:41;101302.81;;;9.18;82.82
59104;BME280;51449;51.676;5.812;2023-04-06T17:51:04;101294.56;;;9.18;82.64
59104;BME280;51449;51.676;5.812;2023-04-06T17:53:27;101297.31;;;9.18;83.01
59104;BME280;51449;51.676;5.812;2023-04-06T17:55:54;101299.25;;;9.17;83.19
59104;BME280;51449;51.676;5.812;2023-04-06T17:58:16;101295.72;;;9.17;82.84
59104;BME280;51449;51.676;5.812;2023-04-06T18:00:38;101298.13;;;9.18;82.57
59104;BME280;51449;51.676;5.812;2023-04-06T18:03:00;101298.94;;;9.19;82.77
59104;BME280;51449;51.676;5.812;2023-04-06T18:05:24;101298.13;;;9.18;83.17
59104;BME280;51449;51.676;5.812;2023-04-06T18:07:49;101301.69;;;9.19;82.81
59104;BME280;51449;51.676;5.812;2023-04-06T18:10:13;101302.81;;;9.18;82.92
59104;BME280;51449;51.676;5.812;2023-04-06T18:12:35;101302.00;;;9.17;82.80
59104;BME280;51449;51.676;5.812;2023-04-06T18:14:57;101303.63;;;9.18;82.83
59104;BME280;51449;51.676;5.812;2023-04-06T18:17:19;101306.72;;;9.17;82.96
59104;BME280;51449;51.676;5.812;2023-04-06T18:19:41;101305.88;;;9.16;83.39
59104;BME280;51449;51.676;5.812;2023-04-06T18:22:04;101302.81;;;9.18;83.28
59104;BME280;51449;51.676;5.812;2023-04-06T18:24:27;101299.78;;;9.19;82.71
59104;BME280;51449;51.676;5.812;2023-04-06T18:27:03;101297.81;;;9.20;83.04
59104;BME280;51449;51.676;5.812;2023-04-06T18:29:25;101304.13;;;9.20;82.72
59104;BME280;51449;51.676;5.812;2023-04-06T18:31:47;101304.44;;;9.19;83.11
59104;BME280;51449;51.676;5.812;2023-04-06T18:34:12;101298.13;;;9.18;83.21
59104;BME280;51449;51.676;5.812;2023-04-06T18:36:34;101297.81;;;9.20;83.36
59104;BME280;51449;51.676;5.812;2023-04-06T18:38:56;101293.44;;;9.19;83.52
59104;BME280;51449;51.676;5.812;2023-04-06T18:41:18;101300.06;;;9.18;83.32
59104;BME280;51449;51.676;5.812;2023-04-06T18:43:43;101293.44;;;9.19;83.52
59104;BME280;51449;51.676;5.812;2023-04-06T18:46:12;101298.94;;;9.19;83.37
59104;BME280;51449;51.676;5.812;2023-04-06T18:48:35;101303.31;;;9.20;83.77
59104;BME280;51449;51.676;5.812;2023-04-06T18:50:57;101296.69;;;9.21;83.35
59104;BME280;51449;51.676;5.812;2023-04-06T18:53:25;101302.19;;;9.21;83.76
59104;BME280;51449;51.676;5.812;2023-04-06T18:55:46;101300.75;;;9.24;83.46